x

North Equatorial Two - 890 Nm East Of Martinique (41041) Wave Buoy

3:50pm - Sat 27th Aug 2016 All times are UTC.

  • Sig Wave height 4.3ft
  • Swell Direction
  • Peak Period 8s
  • Average Period 5s
  • Wind
    13mph, 16mph gusts
  • Sea Temp 83°f
  • Air Temp 82°f
  • Sea Pressure 1013.2mb

More Historic Weather Station data

Upgrade to MSW Pro to gain access to the past 30 days of data for over 8000 Wavebouys and Weather Stations around the globe.

Join Pro

Comparision Forecast

View Surf forecast
   
Sat 08/27 3:50pm 4.5ft 8s 5s 13 16 mph 1013.2mb 83f 82f
2:50pm 4.5ft 7s 5s 16 18 mph 1013.6mb 82f 82f
1:50pm 4.5ft 7s 5s 18 20 mph 1014mb 82f 82f
12:50pm 4.5ft 7s 5s 16 18 mph 1014.3mb 82f 82f
11:50am 4ft 8s 5s 16 18 mph 1014.3mb 82f 82f
10:50am 3.5ft 8s 5s 16 18 mph 1014.1mb 82f 82f
9:50am 3.5ft 9s 5s 16 18 mph 1013.5mb 82f 81f
8:50am 3.5ft 8s 5s 13 18 mph 1012.9mb 82f 81f
7:50am 3.5ft 7s 5s 16 18 mph 1012.7mb 82f 81f
6:50am 3.5ft 7s 5s 16 18 mph 1012.6mb 82f 81f
5:50am 3.5ft 8s 6s 16 18 mph 1012.5mb 82f 81f
4:50am 3.5ft 8s 6s 13 16 mph 1012.9mb 82f 82f
3:50am 3.5ft 8s 6s 9 11 mph 1013.7mb 82f 82f
2:50am 3.5ft 8s 6s 11 13 mph 1014.4mb 83f 82f
1:50am 3.5ft 8s 7s 11 13 mph 1014.8mb 83f 82f
12:50am 3.5ft 7s 7s 9 11 mph 1014.7mb 83f 82f
Fri 08/26 11:50pm 3ft 8s 7s 9 11 mph 1014.3mb 83f 82f
10:50pm 3.5ft 8s 7s 9 11 mph 1014mb 83f 82f
9:50pm 3ft 8s 7s 9 11 mph 1013.4mb 84f 82f
8:50pm 3.5ft 8s 7s 7
mph
1013.1mb 84f 83f
7:50pm 3.5ft 8s 8s 7 9 mph 1012.9mb 85f 83f
6:50pm 3.5ft 8s 7s 4 7 mph 1012.6mb 86f 83f
5:50pm 3.5ft 8s 7s 2 4 mph 1012.6mb 87f 82f
4:50pm 3.5ft 8s 7s 2 7 mph 1012.7mb 85f 82f
3:50pm 3.5ft 9s 7s 4
mph
1013.3mb 85f 82f
2:50pm 3.5ft 8s 7s 4 7 mph 1013.9mb 84f 82f
1:50pm 4ft 8s 8s 4 7 mph 1014.2mb 84f 82f
12:50pm 3.5ft 8s 7s 2 4 mph 1014.4mb 83f 82f
11:50am 3.5ft 8s 7s 4
mph
1014.4mb 83f 82f
10:50am 3.5ft 9s 7s 4 7 mph 1014.2mb 82f 82f
9:50am 4ft 8s 8s 4 7 mph 1013.7mb 82f 81f
8:50am 4ft 9s 8s 4 7 mph 1013.2mb 82f 81f
7:50am 4.5ft 8s 7s 7
mph
1012.6mb 82f 81f
6:50am 4ft 9s 7s 7 9 mph 1012.4mb 82f 81f
5:50am 4.5ft 9s 7s 4 7 mph 1012.4mb 82f 81f
4:50am 4ft 9s 7s 4 7 mph 1012.7mb 82f 81f
3:50am 4.5ft 9s 7s 4
mph
1013.2mb 82f 81f
2:50am 4.5ft 9s 8s 4
mph
1013.9mb 82f 81f
1:50am 4.5ft 9s 7s 7 9 mph 1014.4mb 82f 81f
12:50am 4.5ft 9s 7s 4 7 mph 1014.8mb 82f 82f
Thu 08/25 11:50pm 4ft 9s 7s 4 7 mph 1014.5mb 82f 82f
10:50pm 4ft 10s 7s 4 7 mph 1014mb 83f 82f
9:50pm 4.5ft 9s 7s 7
mph
1013.4mb 83f 82f
8:50pm 4ft 9s 7s 9 11 mph 1012.7mb 83f 82f
7:50pm 4.5ft 9s 7s 9 11 mph 1012.7mb 83f 82f
6:50pm 4ft 9s 7s 7 9 mph 1012.4mb 83f 82f
5:50pm 4.5ft 9s 7s 9 11 mph 1012mb 83f 82f
4:50pm 5ft 8s 7s 9 11 mph 1012.2mb 83f 82f
3:50pm 4.5ft 8s 6s 11 13 mph 1012.4mb 83f 82f
1:50pm 6ft 10s 7s 11 13 mph 1013.3mb 82f 81f
12:50pm 5.5ft 9s 7s 11 13 mph 1013.6mb 82f 81f
11:50am 6ft 11s 7s 11 13 mph 1013.4mb 82f 80f
10:50am 5.5ft 8s 7s 11 13 mph 1013.4mb 82f 80f
9:50am 5.5ft 11s 8s 13 16 mph 1012.8mb 82f 80f
8:50am 5ft 11s 7s 11 13 mph 1012.5mb 82f 80f
7:50am 5.5ft 13s 7s 9 11 mph 1012.4mb 82f 80f
6:50am 5ft 8s 7s 11 13 mph 1012.1mb 82f 80f
5:50am 5ft 7s 7s 7 9 mph 1011.7mb 82f 80f
4:50am 4.5ft 8s 6s 4 7 mph 1011.8mb 82f 80f
2:50am 4.5ft 7s 6s 4
mph
1013mb 82f 80f
1:50am 4.5ft 8s 6s 2 4 mph 1013.7mb 82f 80f
12:50am 5ft 7s 6s 2
mph
1013.6mb 82f 80f
Wed 08/24 11:50pm 4.5ft 7s 6s 2 4 mph 1013.7mb 83f 80f
10:50pm 5ft 7s 6s 2 4 mph 1013.3mb 83f 81f
9:50pm 4.5ft 7s 6s 2 4 mph 1012.5mb 83f 81f
8:50pm 4.5ft 8s 6s 2 4 mph 1012.2mb 83f 81f
7:50pm 4.5ft 7s 6s 7 9 mph 1012mb 83f 81f
6:50pm 4.5ft 8s 6s 9 11 mph 1012.1mb 83f 81f
5:50pm 5ft 7s 6s 9 11 mph 1012.4mb 83f 81f
4:50pm 4.5ft 8s  -  4 7 mph 1012.7mb 84f 80f
3:50pm 4.5ft 7s 6s 2 4 mph 1013.3mb 83f 80f
2:50pm 4.5ft 7s 6s 4 7 mph 1013.8mb 83f 80f
1:50pm 4.5ft 7s 6s 7
mph
1014.7mb 82f 79f
12:50pm 4.5ft 7s 6s 11 13 mph 1015mb 82f 79f
11:50am 4.5ft 7s 6s 11
mph
1015mb 82f 79f
9:50am 4ft 8s 5s 4 7 mph 1014.2mb 82f 75f
8:50am 4ft 8s 5s 16 18 mph 1013.6mb 82f 78f
7:50am 3.5ft 7s 5s 13 16 mph 1013.1mb 82f 79f
6:50am 4.5ft 7s 6s 11 13 mph 1012.7mb 82f 80f
5:50am 4ft 7s 5s 11 13 mph 1012.5mb 82f 80f
4:50am 4.5ft 7s 5s 11 13 mph 1012.9mb 82f 80f
3:50am 4.5ft 8s 5s 13 16 mph 1013.5mb 82f 81f
2:50am 4.5ft 7s 5s 13 16 mph 1014mb 82f 81f
1:50am 4.5ft 7s 6s 11 13 mph 1014.5mb 82f 81f
12:50am 5ft 7s 5s 13 16 mph 1014.7mb 82f 81f
Tue 08/23 11:50pm 4.5ft 7s 5s 16 18 mph 1014.4mb 82f 81f
10:50pm 5ft 7s 5s 16 18 mph 1013.7mb 82f 81f
9:50pm 5ft 7s 5s 16 18 mph 1013.3mb 82f 81f
8:50pm 5ft 7s 5s 13 16 mph 1012.9mb 82f 81f
7:50pm 5ft 7s 5s 16 18 mph 1012.8mb 82f 81f
6:50pm 5ft 7s 5s 16 18 mph 1013mb 82f 82f
5:50pm 5ft 7s 5s 16 18 mph 1013.3mb 82f 82f